This is the latest recevied weather packets stored in our database for station/object EA8BYO-10. If no packets are shown the sender has not sent any weather packets the latest 1 day(s).
| Time | Temp. | Humidity | Pressure | Rain* | Wind** | Luminosity | Snow |
|---|---|---|---|---|---|---|---|
| 1788641318 | 27.78° C | 50% | 1007.8 hPa | - | - | - | - |
| 1788640418 | 27.22° C | 54% | 1007.6 hPa | - | - | - | - |
| 1788639518 | 26.11° C | 59% | 1007.4 hPa | - | - | - | - |
| 1788638618 | 25.56° C | 60% | 1007.2 hPa | - | - | - | - |
| 1788637718 | 26.11° C | 59% | 1007.2 hPa | - | - | - | - |
| 1788636818 | 26.11° C | 60% | 1007 hPa | - | - | - | - |
| 1788635918 | 26.11° C | 61% | 1006.9 hPa | - | - | - | - |
| 1788635017 | 26.11° C | 60% | 1007.1 hPa | - | - | - | - |
| 1788634117 | 26.67° C | 59% | 1007.1 hPa | - | - | - | - |
| 1788633217 | 27.22° C | 57% | 1007 hPa | - | - | - | - |
| 1788632317 | 27.78° C | 56% | 1006.6 hPa | - | - | - | - |
| 1788631417 | 27.78° C | 55% | 1006.6 hPa | - | - | - | - |
| 1788630517 | 28.89° C | 54% | 1006.7 hPa | - | - | - | - |
| 1788629617 | 29.44° C | 53% | 1006.7 hPa | - | - | - | - |
| 1788628717 | 28.89° C | 54% | 1006.8 hPa | - | - | - | - |
| 1788627817 | 29.44° C | 54% | 1006.7 hPa | - | - | - | - |
| 1788626917 | 28.89° C | 55% | 1006.6 hPa | - | - | - | - |
| 1788626016 | 28.89° C | 55% | 1006.5 hPa | - | - | - | - |
| 1788625116 | 29.44° C | 53% | 1006.4 hPa | - | - | - | - |
| 1788624216 | 29.44° C | 54% | 1006.4 hPa | - | - | - | - |
| 1788623316 | 30° C | 52% | 1006.6 hPa | - | - | - | - |
| 1788622416 | 31.11° C | 50% | 1006.7 hPa | - | - | - | - |
| 1788621515 | 31.11° C | 50% | 1007.1 hPa | - | - | - | - |
| 1788620615 | 32.22° C | 48% | 1006.9 hPa | - | - | - | - |
| 1788619715 | 31.67° C | 49% | 1006.7 hPa | - | - | - | - |
* Rain since midnight (hover to see other rain measurements)
** Current wind speed in m/s (hover to see current wind gust speed)